sensor_id;sensor_type;location;lat;lon;timestamp;P1;durP1;ratioP1;P2;durP2;ratioP2
8151;SDS011;4117;53.622;9.958;2022-07-29T00:01:46;0.33;;;0.33;;
8151;SDS011;4117;53.622;9.958;2022-07-29T00:04:13;0.27;;;0.27;;
8151;SDS011;4117;53.622;9.958;2022-07-29T00:06:40;0.40;;;0.30;;
8151;SDS011;4117;53.622;9.958;2022-07-29T00:09:08;0.47;;;0.40;;
8151;SDS011;4117;53.622;9.958;2022-07-29T00:11:35;0.83;;;0.47;;
8151;SDS011;4117;53.622;9.958;2022-07-29T00:14:02;0.50;;;0.30;;
8151;SDS011;4117;53.622;9.958;2022-07-29T00:16:29;0.53;;;0.40;;
8151;SDS011;4117;53.622;9.958;2022-07-29T00:18:56;0.83;;;0.50;;
8151;SDS011;4117;53.622;9.958;2022-07-29T00:21:23;0.60;;;0.43;;
8151;SDS011;4117;53.622;9.958;2022-07-29T00:23:50;0.50;;;0.50;;
8151;SDS011;4117;53.622;9.958;2022-07-29T00:26:18;0.33;;;0.33;;
8151;SDS011;4117;53.622;9.958;2022-07-29T00:28:45;0.20;;;0.20;;
8151;SDS011;4117;53.622;9.958;2022-07-29T00:31:12;0.20;;;0.20;;
8151;SDS011;4117;53.622;9.958;2022-07-29T00:33:39;0.80;;;0.47;;
8151;SDS011;4117;53.622;9.958;2022-07-29T00:36:05;0.57;;;0.30;;
8151;SDS011;4117;53.622;9.958;2022-07-29T00:38:31;0.63;;;0.40;;
8151;SDS011;4117;53.622;9.958;2022-07-29T00:40:58;0.50;;;0.40;;
8151;SDS011;4117;53.622;9.958;2022-07-29T00:43:26;0.27;;;0.23;;
8151;SDS011;4117;53.622;9.958;2022-07-29T00:45:53;0.23;;;0.23;;
8151;SDS011;4117;53.622;9.958;2022-07-29T00:48:20;0.93;;;0.30;;
8151;SDS011;4117;53.622;9.958;2022-07-29T00:50:47;0.40;;;0.40;;
8151;SDS011;4117;53.622;9.958;2022-07-29T00:53:15;0.73;;;0.40;;
8151;SDS011;4117;53.622;9.958;2022-07-29T00:55:42;0.40;;;0.40;;
8151;SDS011;4117;53.622;9.958;2022-07-29T00:58:09;0.60;;;0.40;;
8151;SDS011;4117;53.622;9.958;2022-07-29T01:00:39;0.40;;;0.33;;
8151;SDS011;4117;53.622;9.958;2022-07-29T01:03:06;0.47;;;0.47;;
8151;SDS011;4117;53.622;9.958;2022-07-29T01:05:33;0.53;;;0.50;;
8151;SDS011;4117;53.622;9.958;2022-07-29T01:08:01;0.77;;;0.60;;
8151;SDS011;4117;53.622;9.958;2022-07-29T01:10:28;0.50;;;0.50;;
8151;SDS011;4117;53.622;9.958;2022-07-29T01:12:57;0.50;;;0.50;;
8151;SDS011;4117;53.622;9.958;2022-07-29T01:15:25;0.70;;;0.43;;
8151;SDS011;4117;53.622;9.958;2022-07-29T01:17:54;0.33;;;0.33;;
8151;SDS011;4117;53.622;9.958;2022-07-29T01:20:30;1.00;;;0.50;;
8151;SDS011;4117;53.622;9.958;2022-07-29T01:23:08;0.60;;;0.57;;
8151;SDS011;4117;53.622;9.958;2022-07-29T01:28:54;0.37;;;0.33;;
8151;SDS011;4117;53.622;9.958;2022-07-29T01:31:28;0.43;;;0.43;;
8151;SDS011;4117;53.622;9.958;2022-07-29T01:34:01;0.43;;;0.37;;
8151;SDS011;4117;53.622;9.958;2022-07-29T01:36:32;0.77;;;0.50;;
8151;SDS011;4117;53.622;9.958;2022-07-29T01:39:04;0.47;;;0.33;;
8151;SDS011;4117;53.622;9.958;2022-07-29T01:41:35;0.50;;;0.50;;
8151;SDS011;4117;53.622;9.958;2022-07-29T01:44:11;0.33;;;0.30;;
8151;SDS011;4117;53.622;9.958;2022-07-29T01:46:42;0.33;;;0.30;;
8151;SDS011;4117;53.622;9.958;2022-07-29T01:49:16;0.23;;;0.23;;
8151;SDS011;4117;53.622;9.958;2022-07-29T01:51:48;0.90;;;0.70;;
8151;SDS011;4117;53.622;9.958;2022-07-29T01:54:20;0.40;;;0.30;;
8151;SDS011;4117;53.622;9.958;2022-07-29T01:56:53;0.53;;;0.53;;
8151;SDS011;4117;53.622;9.958;2022-07-29T01:59:23;0.53;;;0.50;;
8151;SDS011;4117;53.622;9.958;2022-07-29T02:01:53;0.50;;;0.47;;
8151;SDS011;4117;53.622;9.958;2022-07-29T02:04:20;0.53;;;0.43;;
8151;SDS011;4117;53.622;9.958;2022-07-29T02:06:49;0.50;;;0.50;;
8151;SDS011;4117;53.622;9.958;2022-07-29T02:09:19;2.10;;;0.60;;
8151;SDS011;4117;53.622;9.958;2022-07-29T02:11:48;0.40;;;0.40;;
8151;SDS011;4117;53.622;9.958;2022-07-29T02:14:18;0.40;;;0.40;;
8151;SDS011;4117;53.622;9.958;2022-07-29T02:16:48;0.47;;;0.47;;
8151;SDS011;4117;53.622;9.958;2022-07-29T02:19:19;0.60;;;0.50;;
8151;SDS011;4117;53.622;9.958;2022-07-29T02:21:50;1.27;;;0.50;;
8151;SDS011;4117;53.622;9.958;2022-07-29T02:24:19;0.30;;;0.30;;
8151;SDS011;4117;53.622;9.958;2022-07-29T02:26:47;3.10;;;0.40;;
8151;SDS011;4117;53.622;9.958;2022-07-29T02:29:17;0.80;;;0.53;;
8151;SDS011;4117;53.622;9.958;2022-07-29T02:31:49;0.40;;;0.40;;
8151;SDS011;4117;53.622;9.958;2022-07-29T02:34:18;1.17;;;0.60;;
8151;SDS011;4117;53.622;9.958;2022-07-29T02:36:47;2.00;;;0.53;;
8151;SDS011;4117;53.622;9.958;2022-07-29T02:39:15;2.20;;;0.47;;
8151;SDS011;4117;53.622;9.958;2022-07-29T02:41:43;0.40;;;0.40;;
8151;SDS011;4117;53.622;9.958;2022-07-29T02:44:13;0.60;;;0.60;;
8151;SDS011;4117;53.622;9.958;2022-07-29T02:46:43;0.40;;;0.30;;
8151;SDS011;4117;53.622;9.958;2022-07-29T02:49:16;0.20;;;0.20;;
8151;SDS011;4117;53.622;9.958;2022-07-29T02:51:51;0.40;;;0.40;;
8151;SDS011;4117;53.622;9.958;2022-07-29T02:54:22;1.13;;;0.60;;
8151;SDS011;4117;53.622;9.958;2022-07-29T02:56:53;0.43;;;0.37;;
8151;SDS011;4117;53.622;9.958;2022-07-29T02:59:24;0.70;;;0.60;;
8151;SDS011;4117;53.622;9.958;2022-07-29T03:01:54;0.63;;;0.53;;
8151;SDS011;4117;53.622;9.958;2022-07-29T03:04:25;1.10;;;0.70;;
8151;SDS011;4117;53.622;9.958;2022-07-29T03:06:54;0.47;;;0.43;;
8151;SDS011;4117;53.622;9.958;2022-07-29T03:09:24;0.50;;;0.50;;
8151;SDS011;4117;53.622;9.958;2022-07-29T03:11:52;0.63;;;0.50;;
8151;SDS011;4117;53.622;9.958;2022-07-29T03:14:20;0.83;;;0.60;;
8151;SDS011;4117;53.622;9.958;2022-07-29T03:16:49;0.80;;;0.73;;
8151;SDS011;4117;53.622;9.958;2022-07-29T03:19:17;0.60;;;0.60;;
8151;SDS011;4117;53.622;9.958;2022-07-29T03:21:46;0.40;;;0.40;;
8151;SDS011;4117;53.622;9.958;2022-07-29T03:24:29;0.60;;;0.60;;
8151;SDS011;4117;53.622;9.958;2022-07-29T03:26:57;0.70;;;0.50;;
8151;SDS011;4117;53.622;9.958;2022-07-29T03:29:24;0.50;;;0.50;;
8151;SDS011;4117;53.622;9.958;2022-07-29T03:31:52;0.80;;;0.60;;
8151;SDS011;4117;53.622;9.958;2022-07-29T03:34:19;0.73;;;0.60;;
8151;SDS011;4117;53.622;9.958;2022-07-29T03:36:47;0.33;;;0.33;;
8151;SDS011;4117;53.622;9.958;2022-07-29T03:39:15;1.17;;;0.57;;
8151;SDS011;4117;53.622;9.958;2022-07-29T03:41:44;0.73;;;0.67;;
8151;SDS011;4117;53.622;9.958;2022-07-29T03:44:13;0.40;;;0.40;;
8151;SDS011;4117;53.622;9.958;2022-07-29T03:46:41;1.30;;;0.60;;
8151;SDS011;4117;53.622;9.958;2022-07-29T03:49:10;0.60;;;0.60;;
8151;SDS011;4117;53.622;9.958;2022-07-29T03:51:39;0.83;;;0.70;;
8151;SDS011;4117;53.622;9.958;2022-07-29T03:54:08;0.60;;;0.57;;
8151;SDS011;4117;53.622;9.958;2022-07-29T03:56:37;0.70;;;0.53;;
8151;SDS011;4117;53.622;9.958;2022-07-29T03:59:06;0.30;;;0.30;;
8151;SDS011;4117;53.622;9.958;2022-07-29T04:01:34;0.30;;;0.30;;
8151;SDS011;4117;53.622;9.958;2022-07-29T04:04:01;0.57;;;0.57;;
8151;SDS011;4117;53.622;9.958;2022-07-29T04:06:28;0.60;;;0.50;;
8151;SDS011;4117;53.622;9.958;2022-07-29T04:09:03;0.37;;;0.37;;
8151;SDS011;4117;53.622;9.958;2022-07-29T04:11:31;0.60;;;0.50;;
8151;SDS011;4117;53.622;9.958;2022-07-29T04:13:58;0.63;;;0.60;;
8151;SDS011;4117;53.622;9.958;2022-07-29T04:16:25;0.93;;;0.73;;
8151;SDS011;4117;53.622;9.958;2022-07-29T04:18:52;0.70;;;0.70;;
8151;SDS011;4117;53.622;9.958;2022-07-29T04:21:19;2.47;;;0.70;;
8151;SDS011;4117;53.622;9.958;2022-07-29T04:23:46;0.83;;;0.60;;
8151;SDS011;4117;53.622;9.958;2022-07-29T04:26:14;0.67;;;0.63;;
8151;SDS011;4117;53.622;9.958;2022-07-29T04:28:43;0.53;;;0.53;;
8151;SDS011;4117;53.622;9.958;2022-07-29T04:31:10;0.80;;;0.50;;
8151;SDS011;4117;53.622;9.958;2022-07-29T04:33:37;0.60;;;0.40;;
8151;SDS011;4117;53.622;9.958;2022-07-29T04:36:04;0.67;;;0.33;;
8151;SDS011;4117;53.622;9.958;2022-07-29T04:38:31;1.00;;;0.87;;
8151;SDS011;4117;53.622;9.958;2022-07-29T04:40:58;0.47;;;0.47;;
8151;SDS011;4117;53.622;9.958;2022-07-29T04:43:25;0.60;;;0.50;;
8151;SDS011;4117;53.622;9.958;2022-07-29T04:45:53;0.73;;;0.60;;
8151;SDS011;4117;53.622;9.958;2022-07-29T04:48:20;0.50;;;0.50;;
8151;SDS011;4117;53.622;9.958;2022-07-29T04:50:46;0.83;;;0.63;;
8151;SDS011;4117;53.622;9.958;2022-07-29T04:53:13;0.40;;;0.40;;
8151;SDS011;4117;53.622;9.958;2022-07-29T04:55:40;2.50;;;0.80;;
8151;SDS011;4117;53.622;9.958;2022-07-29T04:58:07;0.63;;;0.60;;
8151;SDS011;4117;53.622;9.958;2022-07-29T05:00:34;2.20;;;0.50;;
8151;SDS011;4117;53.622;9.958;2022-07-29T05:03:02;0.60;;;0.50;;
8151;SDS011;4117;53.622;9.958;2022-07-29T05:05:29;1.03;;;0.80;;
8151;SDS011;4117;53.622;9.958;2022-07-29T05:07:56;0.67;;;0.57;;
8151;SDS011;4117;53.622;9.958;2022-07-29T05:10:23;1.60;;;0.80;;
8151;SDS011;4117;53.622;9.958;2022-07-29T05:12:50;1.33;;;0.70;;
8151;SDS011;4117;53.622;9.958;2022-07-29T05:15:17;0.63;;;0.60;;
8151;SDS011;4117;53.622;9.958;2022-07-29T05:17:44;0.60;;;0.40;;
8151;SDS011;4117;53.622;9.958;2022-07-29T05:20:12;2.63;;;0.70;;
8151;SDS011;4117;53.622;9.958;2022-07-29T05:22:39;0.77;;;0.73;;
8151;SDS011;4117;53.622;9.958;2022-07-29T05:25:06;1.00;;;0.63;;
8151;SDS011;4117;53.622;9.958;2022-07-29T05:27:34;0.90;;;0.50;;
8151;SDS011;4117;53.622;9.958;2022-07-29T05:30:02;1.43;;;0.80;;
8151;SDS011;4117;53.622;9.958;2022-07-29T05:32:29;1.10;;;0.80;;
8151;SDS011;4117;53.622;9.958;2022-07-29T05:34:56;0.87;;;0.80;;
8151;SDS011;4117;53.622;9.958;2022-07-29T05:37:25;0.90;;;0.73;;
8151;SDS011;4117;53.622;9.958;2022-07-29T05:39:51;0.70;;;0.60;;
8151;SDS011;4117;53.622;9.958;2022-07-29T05:42:18;1.23;;;0.70;;
8151;SDS011;4117;53.622;9.958;2022-07-29T05:44:45;0.40;;;0.40;;
8151;SDS011;4117;53.622;9.958;2022-07-29T05:47:12;0.83;;;0.60;;
8151;SDS011;4117;53.622;9.958;2022-07-29T05:49:39;0.50;;;0.50;;
8151;SDS011;4117;53.622;9.958;2022-07-29T05:52:06;0.60;;;0.60;;
8151;SDS011;4117;53.622;9.958;2022-07-29T05:54:35;0.73;;;0.73;;
8151;SDS011;4117;53.622;9.958;2022-07-29T05:57:02;1.20;;;0.90;;
8151;SDS011;4117;53.622;9.958;2022-07-29T05:59:30;1.00;;;0.80;;
8151;SDS011;4117;53.622;9.958;2022-07-29T06:01:57;0.70;;;0.60;;
8151;SDS011;4117;53.622;9.958;2022-07-29T06:04:24;0.63;;;0.60;;
8151;SDS011;4117;53.622;9.958;2022-07-29T06:06:51;0.73;;;0.67;;
8151;SDS011;4117;53.622;9.958;2022-07-29T06:09:18;0.60;;;0.60;;
8151;SDS011;4117;53.622;9.958;2022-07-29T06:11:46;1.30;;;0.83;;
8151;SDS011;4117;53.622;9.958;2022-07-29T06:14:13;2.53;;;0.70;;
8151;SDS011;4117;53.622;9.958;2022-07-29T06:16:40;0.60;;;0.60;;
8151;SDS011;4117;53.622;9.958;2022-07-29T06:19:07;2.20;;;0.80;;
8151;SDS011;4117;53.622;9.958;2022-07-29T06:21:34;0.80;;;0.80;;
8151;SDS011;4117;53.622;9.958;2022-07-29T06:24:01;1.00;;;0.67;;
8151;SDS011;4117;53.622;9.958;2022-07-29T06:26:28;1.30;;;1.20;;
8151;SDS011;4117;53.622;9.958;2022-07-29T06:28:56;1.23;;;0.90;;
8151;SDS011;4117;53.622;9.958;2022-07-29T06:31:23;1.27;;;0.90;;
8151;SDS011;4117;53.622;9.958;2022-07-29T06:33:50;0.80;;;0.60;;
8151;SDS011;4117;53.622;9.958;2022-07-29T06:36:17;0.70;;;0.70;;
8151;SDS011;4117;53.622;9.958;2022-07-29T06:38:44;1.97;;;0.80;;
8151;SDS011;4117;53.622;9.958;2022-07-29T06:41:11;2.00;;;0.77;;
8151;SDS011;4117;53.622;9.958;2022-07-29T06:43:41;1.33;;;0.80;;
8151;SDS011;4117;53.622;9.958;2022-07-29T06:46:12;0.83;;;0.63;;
8151;SDS011;4117;53.622;9.958;2022-07-29T06:48:40;1.10;;;1.00;;
8151;SDS011;4117;53.622;9.958;2022-07-29T06:51:08;0.70;;;0.60;;
8151;SDS011;4117;53.622;9.958;2022-07-29T06:53:36;0.70;;;0.60;;
8151;SDS011;4117;53.622;9.958;2022-07-29T06:56:05;2.50;;;0.67;;
8151;SDS011;4117;53.622;9.958;2022-07-29T06:58:33;0.80;;;0.70;;
8151;SDS011;4117;53.622;9.958;2022-07-29T07:01:01;2.83;;;0.90;;
8151;SDS011;4117;53.622;9.958;2022-07-29T07:03:31;1.00;;;0.70;;
8151;SDS011;4117;53.622;9.958;2022-07-29T07:05:58;0.70;;;0.70;;
8151;SDS011;4117;53.622;9.958;2022-07-29T07:08:25;2.50;;;0.70;;
8151;SDS011;4117;53.622;9.958;2022-07-29T07:10:52;1.50;;;0.90;;
8151;SDS011;4117;53.622;9.958;2022-07-29T07:13:20;0.70;;;0.60;;
8151;SDS011;4117;53.622;9.958;2022-07-29T07:15:47;0.73;;;0.67;;
8151;SDS011;4117;53.622;9.958;2022-07-29T07:18:14;0.80;;;0.80;;
8151;SDS011;4117;53.622;9.958;2022-07-29T07:20:42;0.80;;;0.67;;
8151;SDS011;4117;53.622;9.958;2022-07-29T07:23:10;0.70;;;0.70;;
8151;SDS011;4117;53.622;9.958;2022-07-29T07:25:37;1.07;;;0.90;;
8151;SDS011;4117;53.622;9.958;2022-07-29T07:28:03;2.30;;;0.80;;
8151;SDS011;4117;53.622;9.958;2022-07-29T07:30:30;3.70;;;0.70;;
8151;SDS011;4117;53.622;9.958;2022-07-29T07:32:57;0.63;;;0.57;;
8151;SDS011;4117;53.622;9.958;2022-07-29T07:35:25;0.80;;;0.80;;
8151;SDS011;4117;53.622;9.958;2022-07-29T07:37:54;0.80;;;0.70;;
8151;SDS011;4117;53.622;9.958;2022-07-29T07:40:21;3.53;;;0.80;;
8151;SDS011;4117;53.622;9.958;2022-07-29T07:42:48;1.23;;;0.93;;
8151;SDS011;4117;53.622;9.958;2022-07-29T07:45:14;0.73;;;0.70;;
8151;SDS011;4117;53.622;9.958;2022-07-29T07:47:42;0.97;;;0.87;;
8151;SDS011;4117;53.622;9.958;2022-07-29T07:50:09;1.27;;;0.70;;
8151;SDS011;4117;53.622;9.958;2022-07-29T07:52:45;3.63;;;1.10;;
8151;SDS011;4117;53.622;9.958;2022-07-29T07:55:15;1.60;;;0.73;;
8151;SDS011;4117;53.622;9.958;2022-07-29T07:57:42;1.43;;;0.70;;
8151;SDS011;4117;53.622;9.958;2022-07-29T08:00:10;1.60;;;0.53;;
8151;SDS011;4117;53.622;9.958;2022-07-29T08:02:38;1.60;;;0.90;;
8151;SDS011;4117;53.622;9.958;2022-07-29T08:05:05;0.70;;;0.70;;
8151;SDS011;4117;53.622;9.958;2022-07-29T08:07:33;3.13;;;0.83;;
8151;SDS011;4117;53.622;9.958;2022-07-29T08:10:00;0.67;;;0.60;;
8151;SDS011;4117;53.622;9.958;2022-07-29T08:12:28;2.73;;;0.80;;
8151;SDS011;4117;53.622;9.958;2022-07-29T08:14:55;0.83;;;0.67;;
8151;SDS011;4117;53.622;9.958;2022-07-29T08:17:22;1.20;;;0.80;;
8151;SDS011;4117;53.622;9.958;2022-07-29T08:19:49;0.70;;;0.70;;
8151;SDS011;4117;53.622;9.958;2022-07-29T08:22:16;1.80;;;1.07;;
8151;SDS011;4117;53.622;9.958;2022-07-29T08:24:43;2.00;;;0.93;;
8151;SDS011;4117;53.622;9.958;2022-07-29T08:27:17;1.37;;;0.80;;
8151;SDS011;4117;53.622;9.958;2022-07-29T08:29:46;0.90;;;0.77;;
8151;SDS011;4117;53.622;9.958;2022-07-29T08:32:13;0.70;;;0.70;;
8151;SDS011;4117;53.622;9.958;2022-07-29T08:34:40;1.47;;;0.90;;
8151;SDS011;4117;53.622;9.958;2022-07-29T08:37:07;1.87;;;1.17;;
8151;SDS011;4117;53.622;9.958;2022-07-29T08:39:34;4.03;;;0.90;;
8151;SDS011;4117;53.622;9.958;2022-07-29T08:42:01;1.30;;;0.80;;
8151;SDS011;4117;53.622;9.958;2022-07-29T08:44:28;0.77;;;0.77;;
8151;SDS011;4117;53.622;9.958;2022-07-29T08:46:56;2.10;;;0.90;;
8151;SDS011;4117;53.622;9.958;2022-07-29T08:49:23;1.07;;;0.67;;
8151;SDS011;4117;53.622;9.958;2022-07-29T08:51:50;2.13;;;0.97;;
8151;SDS011;4117;53.622;9.958;2022-07-29T08:54:19;1.13;;;0.90;;
8151;SDS011;4117;53.622;9.958;2022-07-29T08:56:48;0.77;;;0.70;;
8151;SDS011;4117;53.622;9.958;2022-07-29T08:59:15;1.47;;;0.70;;
8151;SDS011;4117;53.622;9.958;2022-07-29T09:01:45;1.00;;;0.80;;
8151;SDS011;4117;53.622;9.958;2022-07-29T09:04:15;1.40;;;0.80;;
8151;SDS011;4117;53.622;9.958;2022-07-29T09:06:44;1.13;;;0.70;;
8151;SDS011;4117;53.622;9.958;2022-07-29T09:09:13;0.80;;;0.80;;
8151;SDS011;4117;53.622;9.958;2022-07-29T09:11:40;1.00;;;0.90;;
8151;SDS011;4117;53.622;9.958;2022-07-29T09:14:08;1.40;;;0.80;;
8151;SDS011;4117;53.622;9.958;2022-07-29T09:16:44;0.80;;;0.70;;
8151;SDS011;4117;53.622;9.958;2022-07-29T09:19:20;0.70;;;0.63;;
8151;SDS011;4117;53.622;9.958;2022-07-29T09:21:48;1.77;;;0.90;;
8151;SDS011;4117;53.622;9.958;2022-07-29T09:24:25;1.43;;;0.83;;
8151;SDS011;4117;53.622;9.958;2022-07-29T09:27:06;1.40;;;0.83;;
8151;SDS011;4117;53.622;9.958;2022-07-29T09:29:45;0.80;;;0.80;;
8151;SDS011;4117;53.622;9.958;2022-07-29T09:32:12;0.93;;;0.80;;
8151;SDS011;4117;53.622;9.958;2022-07-29T09:34:40;0.90;;;0.80;;
8151;SDS011;4117;53.622;9.958;2022-07-29T09:37:07;0.80;;;0.80;;
8151;SDS011;4117;53.622;9.958;2022-07-29T09:39:35;0.90;;;0.70;;
8151;SDS011;4117;53.622;9.958;2022-07-29T09:42:03;1.20;;;0.80;;
8151;SDS011;4117;53.622;9.958;2022-07-29T09:47:16;2.23;;;0.77;;
8151;SDS011;4117;53.622;9.958;2022-07-29T09:49:51;1.30;;;0.80;;
8151;SDS011;4117;53.622;9.958;2022-07-29T09:52:20;1.30;;;0.60;;
8151;SDS011;4117;53.622;9.958;2022-07-29T09:54:47;0.93;;;0.80;;
8151;SDS011;4117;53.622;9.958;2022-07-29T09:57:21;1.37;;;0.90;;
8151;SDS011;4117;53.622;9.958;2022-07-29T09:59:55;2.63;;;0.90;;
8151;SDS011;4117;53.622;9.958;2022-07-29T10:02:27;2.47;;;0.67;;
8151;SDS011;4117;53.622;9.958;2022-07-29T10:04:57;1.00;;;0.90;;
8151;SDS011;4117;53.622;9.958;2022-07-29T10:07:25;1.27;;;0.80;;
8151;SDS011;4117;53.622;9.958;2022-07-29T10:09:53;0.90;;;0.67;;
8151;SDS011;4117;53.622;9.958;2022-07-29T10:12:21;1.47;;;0.80;;
8151;SDS011;4117;53.622;9.958;2022-07-29T10:14:49;1.30;;;0.70;;
8151;SDS011;4117;53.622;9.958;2022-07-29T10:17:17;2.87;;;0.87;;
8151;SDS011;4117;53.622;9.958;2022-07-29T10:19:44;0.70;;;0.70;;
8151;SDS011;4117;53.622;9.958;2022-07-29T10:22:13;0.80;;;0.80;;
8151;SDS011;4117;53.622;9.958;2022-07-29T10:24:40;1.27;;;0.80;;
8151;SDS011;4117;53.622;9.958;2022-07-29T10:27:07;3.23;;;0.80;;
8151;SDS011;4117;53.622;9.958;2022-07-29T10:29:35;1.13;;;0.87;;
8151;SDS011;4117;53.622;9.958;2022-07-29T10:32:07;0.90;;;0.83;;
8151;SDS011;4117;53.622;9.958;2022-07-29T10:38:10;0.80;;;0.67;;
8151;SDS011;4117;53.622;9.958;2022-07-29T10:41:11;2.30;;;0.80;;
8151;SDS011;4117;53.622;9.958;2022-07-29T10:43:55;0.77;;;0.70;;
8151;SDS011;4117;53.622;9.958;2022-07-29T10:46:25;0.90;;;0.80;;
8151;SDS011;4117;53.622;9.958;2022-07-29T10:49:10;1.30;;;0.60;;
8151;SDS011;4117;53.622;9.958;2022-07-29T10:51:56;1.17;;;0.70;;
8151;SDS011;4117;53.622;9.958;2022-07-29T10:57:21;2.40;;;0.67;;
8151;SDS011;4117;53.622;9.958;2022-07-29T10:59:52;1.23;;;0.70;;
8151;SDS011;4117;53.622;9.958;2022-07-29T11:02:57;1.63;;;0.70;;
8151;SDS011;4117;53.622;9.958;2022-07-29T11:05:25;0.70;;;0.70;;
8151;SDS011;4117;53.622;9.958;2022-07-29T11:10:52;0.80;;;0.70;;
8151;SDS011;4117;53.622;9.958;2022-07-29T11:13:46;3.90;;;0.80;;
8151;SDS011;4117;53.622;9.958;2022-07-29T11:16:15;0.97;;;0.80;;
8151;SDS011;4117;53.622;9.958;2022-07-29T11:21:47;0.70;;;0.70;;
8151;SDS011;4117;53.622;9.958;2022-07-29T11:24:17;0.67;;;0.67;;
8151;SDS011;4117;53.622;9.958;2022-07-29T11:26:47;1.30;;;0.63;;
8151;SDS011;4117;53.622;9.958;2022-07-29T11:29:38;1.47;;;0.80;;
8151;SDS011;4117;53.622;9.958;2022-07-29T11:32:10;2.30;;;0.77;;
8151;SDS011;4117;53.622;9.958;2022-07-29T11:34:39;0.60;;;0.60;;
8151;SDS011;4117;53.622;9.958;2022-07-29T11:37:17;2.13;;;0.63;;
8151;SDS011;4117;53.622;9.958;2022-07-29T11:39:47;1.10;;;0.80;;
8151;SDS011;4117;53.622;9.958;2022-07-29T11:42:39;1.47;;;0.60;;
8151;SDS011;4117;53.622;9.958;2022-07-29T11:45:07;1.20;;;0.80;;
8151;SDS011;4117;53.622;9.958;2022-07-29T11:47:35;1.23;;;0.90;;
8151;SDS011;4117;53.622;9.958;2022-07-29T11:50:04;0.70;;;0.70;;
8151;SDS011;4117;53.622;9.958;2022-07-29T11:52:32;1.77;;;0.70;;
8151;SDS011;4117;53.622;9.958;2022-07-29T11:55:03;0.60;;;0.60;;
8151;SDS011;4117;53.622;9.958;2022-07-29T11:57:31;1.03;;;0.70;;
8151;SDS011;4117;53.622;9.958;2022-07-29T12:00:01;0.63;;;0.63;;
8151;SDS011;4117;53.622;9.958;2022-07-29T12:02:39;0.70;;;0.60;;
8151;SDS011;4117;53.622;9.958;2022-07-29T12:05:08;3.23;;;0.70;;
8151;SDS011;4117;53.622;9.958;2022-07-29T12:07:36;1.20;;;0.70;;
8151;SDS011;4117;53.622;9.958;2022-07-29T12:10:04;0.67;;;0.67;;
8151;SDS011;4117;53.622;9.958;2022-07-29T12:12:32;0.60;;;0.60;;
8151;SDS011;4117;53.622;9.958;2022-07-29T12:15:11;0.73;;;0.73;;
8151;SDS011;4117;53.622;9.958;2022-07-29T12:17:39;3.90;;;0.90;;
8151;SDS011;4117;53.622;9.958;2022-07-29T12:20:07;2.30;;;0.73;;
8151;SDS011;4117;53.622;9.958;2022-07-29T12:22:35;3.03;;;0.70;;
8151;SDS011;4117;53.622;9.958;2022-07-29T12:25:05;0.63;;;0.60;;
8151;SDS011;4117;53.622;9.958;2022-07-29T12:27:34;1.60;;;0.70;;
8151;SDS011;4117;53.622;9.958;2022-07-29T12:30:03;0.47;;;0.47;;
8151;SDS011;4117;53.622;9.958;2022-07-29T12:32:34;2.00;;;0.83;;
8151;SDS011;4117;53.622;9.958;2022-07-29T12:35:02;0.97;;;0.80;;
8151;SDS011;4117;53.622;9.958;2022-07-29T12:37:30;0.90;;;0.80;;
8151;SDS011;4117;53.622;9.958;2022-07-29T12:39:59;0.57;;;0.57;;
8151;SDS011;4117;53.622;9.958;2022-07-29T12:42:26;0.90;;;0.70;;
8151;SDS011;4117;53.622;9.958;2022-07-29T12:44:53;2.20;;;0.63;;
8151;SDS011;4117;53.622;9.958;2022-07-29T12:47:20;1.50;;;0.83;;
8151;SDS011;4117;53.622;9.958;2022-07-29T12:49:49;0.73;;;0.63;;
8151;SDS011;4117;53.622;9.958;2022-07-29T12:52:23;1.63;;;0.80;;
8151;SDS011;4117;53.622;9.958;2022-07-29T12:54:51;0.67;;;0.67;;
8151;SDS011;4117;53.622;9.958;2022-07-29T12:57:18;1.10;;;0.77;;
8151;SDS011;4117;53.622;9.958;2022-07-29T12:59:57;1.77;;;0.97;;
8151;SDS011;4117;53.622;9.958;2022-07-29T13:02:30;0.70;;;0.70;;
8151;SDS011;4117;53.622;9.958;2022-07-29T13:04:59;0.60;;;0.60;;
8151;SDS011;4117;53.622;9.958;2022-07-29T13:07:27;1.27;;;0.70;;
8151;SDS011;4117;53.622;9.958;2022-07-29T13:10:00;0.80;;;0.80;;
8151;SDS011;4117;53.622;9.958;2022-07-29T13:12:36;1.27;;;0.80;;
8151;SDS011;4117;53.622;9.958;2022-07-29T13:15:12;0.83;;;0.70;;
8151;SDS011;4117;53.622;9.958;2022-07-29T13:17:40;0.80;;;0.70;;
8151;SDS011;4117;53.622;9.958;2022-07-29T13:20:11;0.77;;;0.60;;
8151;SDS011;4117;53.622;9.958;2022-07-29T13:22:39;1.40;;;0.87;;
8151;SDS011;4117;53.622;9.958;2022-07-29T13:25:07;2.73;;;0.57;;
8151;SDS011;4117;53.622;9.958;2022-07-29T13:27:35;0.80;;;0.80;;
8151;SDS011;4117;53.622;9.958;2022-07-29T13:30:04;0.90;;;0.70;;
8151;SDS011;4117;53.622;9.958;2022-07-29T13:32:33;1.53;;;0.63;;
8151;SDS011;4117;53.622;9.958;2022-07-29T13:35:02;1.13;;;0.73;;
8151;SDS011;4117;53.622;9.958;2022-07-29T13:37:32;1.10;;;0.80;;
8151;SDS011;4117;53.622;9.958;2022-07-29T13:40:00;0.70;;;0.70;;
8151;SDS011;4117;53.622;9.958;2022-07-29T13:42:28;0.93;;;0.70;;
8151;SDS011;4117;53.622;9.958;2022-07-29T13:44:55;1.60;;;0.70;;
8151;SDS011;4117;53.622;9.958;2022-07-29T13:47:22;1.00;;;0.90;;
8151;SDS011;4117;53.622;9.958;2022-07-29T13:49:49;1.40;;;0.87;;
8151;SDS011;4117;53.622;9.958;2022-07-29T13:52:16;1.70;;;1.10;;
8151;SDS011;4117;53.622;9.958;2022-07-29T13:54:44;1.10;;;0.80;;
8151;SDS011;4117;53.622;9.958;2022-07-29T13:57:11;0.93;;;0.70;;
8151;SDS011;4117;53.622;9.958;2022-07-29T13:59:38;4.83;;;1.00;;
8151;SDS011;4117;53.622;9.958;2022-07-29T14:02:05;0.73;;;0.73;;
8151;SDS011;4117;53.622;9.958;2022-07-29T14:04:32;1.43;;;0.83;;
8151;SDS011;4117;53.622;9.958;2022-07-29T14:06:59;3.13;;;0.67;;
8151;SDS011;4117;53.622;9.958;2022-07-29T14:09:29;1.13;;;0.83;;
8151;SDS011;4117;53.622;9.958;2022-07-29T14:11:57;1.10;;;1.00;;
8151;SDS011;4117;53.622;9.958;2022-07-29T14:14:24;0.70;;;0.70;;
8151;SDS011;4117;53.622;9.958;2022-07-29T14:16:51;1.20;;;0.90;;
8151;SDS011;4117;53.622;9.958;2022-07-29T14:19:17;1.50;;;0.70;;
8151;SDS011;4117;53.622;9.958;2022-07-29T14:21:45;3.30;;;0.90;;
8151;SDS011;4117;53.622;9.958;2022-07-29T14:24:11;0.90;;;0.90;;
8151;SDS011;4117;53.622;9.958;2022-07-29T14:26:38;0.70;;;0.70;;
8151;SDS011;4117;53.622;9.958;2022-07-29T14:29:06;1.00;;;0.90;;
8151;SDS011;4117;53.622;9.958;2022-07-29T14:31:33;3.90;;;0.90;;
8151;SDS011;4117;53.622;9.958;2022-07-29T14:34:01;0.97;;;0.87;;
8151;SDS011;4117;53.622;9.958;2022-07-29T14:36:28;1.37;;;0.80;;
8151;SDS011;4117;53.622;9.958;2022-07-29T14:38:54;4.03;;;0.80;;
8151;SDS011;4117;53.622;9.958;2022-07-29T14:41:21;1.03;;;0.80;;
8151;SDS011;4117;53.622;9.958;2022-07-29T14:43:48;2.50;;;0.90;;
8151;SDS011;4117;53.622;9.958;2022-07-29T14:46:16;1.97;;;0.80;;
8151;SDS011;4117;53.622;9.958;2022-07-29T14:48:43;1.80;;;0.80;;
8151;SDS011;4117;53.622;9.958;2022-07-29T14:51:10;1.63;;;1.00;;
8151;SDS011;4117;53.622;9.958;2022-07-29T14:53:37;0.60;;;0.60;;
8151;SDS011;4117;53.622;9.958;2022-07-29T14:56:04;2.30;;;0.77;;
8151;SDS011;4117;53.622;9.958;2022-07-29T14:58:31;0.93;;;0.83;;
8151;SDS011;4117;53.622;9.958;2022-07-29T15:00:58;0.73;;;0.70;;
8151;SDS011;4117;53.622;9.958;2022-07-29T15:03:27;1.03;;;0.90;;
8151;SDS011;4117;53.622;9.958;2022-07-29T15:05:54;0.70;;;0.70;;
8151;SDS011;4117;53.622;9.958;2022-07-29T15:08:21;0.80;;;0.70;;
8151;SDS011;4117;53.622;9.958;2022-07-29T15:10:48;1.10;;;0.80;;
8151;SDS011;4117;53.622;9.958;2022-07-29T15:13:15;0.87;;;0.70;;
8151;SDS011;4117;53.622;9.958;2022-07-29T15:15:42;1.10;;;0.80;;
8151;SDS011;4117;53.622;9.958;2022-07-29T15:18:09;0.50;;;0.50;;
8151;SDS011;4117;53.622;9.958;2022-07-29T15:20:37;1.00;;;0.70;;
8151;SDS011;4117;53.622;9.958;2022-07-29T15:23:04;1.03;;;0.70;;
8151;SDS011;4117;53.622;9.958;2022-07-29T15:25:34;1.33;;;0.70;;
8151;SDS011;4117;53.622;9.958;2022-07-29T15:28:02;0.73;;;0.70;;
8151;SDS011;4117;53.622;9.958;2022-07-29T15:30:32;1.83;;;1.00;;
8151;SDS011;4117;53.622;9.958;2022-07-29T15:33:01;0.80;;;0.73;;
8151;SDS011;4117;53.622;9.958;2022-07-29T15:35:28;1.03;;;0.90;;
8151;SDS011;4117;53.622;9.958;2022-07-29T15:37:57;4.00;;;0.60;;
8151;SDS011;4117;53.622;9.958;2022-07-29T15:40:24;0.80;;;0.77;;
8151;SDS011;4117;53.622;9.958;2022-07-29T15:42:51;0.93;;;0.80;;
8151;SDS011;4117;53.622;9.958;2022-07-29T15:45:17;0.80;;;0.67;;